createdAt,value
2017-04-23T00:05:18.169Z,32.7
2017-04-23T00:16:17.772Z,31.5
2017-04-23T00:27:17.942Z,30.9
2017-04-23T00:38:18.310Z,30.5
2017-04-23T00:49:18.077Z,30
2017-04-23T01:00:18.958Z,30
2017-04-23T01:11:17.888Z,29.5
2017-04-23T01:22:18.989Z,29.1
2017-04-23T01:33:18.109Z,28.8
2017-04-23T01:44:18.790Z,28.6
2017-04-23T01:55:18.232Z,28.7
2017-04-23T02:06:19.035Z,31.2
2017-04-23T02:17:18.747Z,31.4
2017-04-23T02:28:18.232Z,31.7
2017-04-23T02:39:18.652Z,31.7
2017-04-23T02:50:18.817Z,32.4
2017-04-23T03:01:18.702Z,32.7
2017-04-23T03:12:18.802Z,32.9
2017-04-23T03:23:18.775Z,33.5
2017-04-23T03:34:18.035Z,33.6
2017-04-23T03:45:19.054Z,34.2
2017-04-23T03:56:18.137Z,33.9
2017-04-23T04:07:18.435Z,34.4
2017-04-23T04:18:18.480Z,31.5
2017-04-23T04:29:18.144Z,32
2017-04-23T04:40:18.495Z,31.7
2017-04-23T04:51:18.963Z,31.1
2017-04-23T05:02:19.246Z,31.2
2017-04-23T05:13:18.307Z,30.5
2017-04-23T05:24:18.322Z,30.5
2017-04-23T05:35:17.846Z,29.6
2017-04-23T05:46:18.461Z,29.7
2017-04-23T05:57:17.868Z,29.4
2017-04-23T06:08:18.073Z,28.7
2017-04-23T06:19:19.004Z,29.1
2017-04-23T06:30:18.951Z,28.9
2017-04-23T06:41:18.643Z,27.9
2017-04-23T06:52:18.123Z,28.5
2017-04-23T07:03:18.046Z,31.4
2017-04-23T07:14:18.525Z,31.4
2017-04-23T07:25:19.014Z,32.2
2017-04-23T07:36:19.071Z,32.1
2017-04-23T07:47:18.686Z,33.5
2017-04-23T07:58:18.743Z,33.9
2017-04-23T08:09:18.220Z,34.4
2017-04-23T08:20:19.012Z,34.5
2017-04-23T08:31:18.092Z,35.2
2017-04-23T08:42:18.035Z,36.4
2017-04-23T08:53:18.320Z,35.5
2017-04-23T09:04:18.462Z,36.4
2017-04-23T09:15:17.921Z,34.9
2017-04-23T09:26:18.297Z,34.1
2017-04-23T09:37:18.219Z,34.4
2017-04-23T09:48:18.443Z,33.6
2017-04-23T09:59:18.732Z,33.4
2017-04-23T10:10:18.161Z,32.3
2017-04-23T10:21:18.666Z,32.3
2017-04-23T10:32:19.942Z,31.5
2017-04-23T10:43:18.079Z,31
2017-04-23T10:54:18.758Z,31.3
2017-04-23T11:05:18.749Z,29.5
2017-04-23T11:16:19.375Z,30.8
2017-04-23T11:27:19.137Z,31.9
2017-04-23T11:38:17.946Z,29.1
2017-04-23T11:49:18.474Z,32.5
2017-04-23T12:00:18.330Z,33
2017-04-23T12:11:17.919Z,33.1
2017-04-23T12:22:18.343Z,32.8
2017-04-23T12:33:18.438Z,34.5
2017-04-23T12:44:18.542Z,35.4
2017-04-23T12:55:18.477Z,35.4
2017-04-23T13:06:17.890Z,36.1
2017-04-23T13:17:18.397Z,36.7
2017-04-23T13:28:19.189Z,36.9
2017-04-23T13:39:18.151Z,36.8
2017-04-23T13:50:18.814Z,36.8
2017-04-23T14:01:18.486Z,34
2017-04-23T14:12:18.759Z,34.8
2017-04-23T14:23:18.067Z,34.7
2017-04-23T14:34:18.241Z,34.9
2017-04-23T14:45:18.621Z,33.6
2017-04-23T14:56:18.405Z,32.6
2017-04-23T15:07:18.616Z,32.7
2017-04-23T15:18:18.139Z,31.6
2017-04-23T15:29:18.307Z,32.5
2017-04-23T15:40:19.634Z,32.2
2017-04-23T15:51:18.480Z,31.4
2017-04-23T16:02:18.963Z,30.8
2017-04-23T16:13:18.238Z,30.8
2017-04-23T16:24:18.889Z,30.5
2017-04-23T16:35:18.707Z,30.4
2017-04-23T16:46:18.349Z,30.3
2017-04-23T16:57:18.156Z,29.4
2017-04-23T17:08:18.081Z,31.4
2017-04-23T17:19:17.792Z,32.9
2017-04-23T17:30:18.620Z,33.3
2017-04-23T17:41:18.884Z,33.9
2017-04-23T17:52:18.641Z,34.3
2017-04-23T18:03:17.844Z,35
2017-04-23T18:14:18.494Z,35.4
2017-04-23T18:25:19.068Z,35.5
2017-04-23T18:36:18.767Z,35.8
2017-04-23T18:47:18.295Z,36.2
2017-04-23T18:58:18.557Z,33.7
2017-04-23T19:09:18.577Z,33.1
2017-04-23T19:20:18.262Z,31.9
2017-04-23T19:31:18.959Z,31.5
2017-04-23T19:42:18.863Z,30.7
2017-04-23T19:53:18.229Z,30.2
2017-04-23T20:04:18.531Z,28.5
2017-04-23T20:15:18.175Z,28.2
2017-04-23T20:26:18.354Z,28.4
2017-04-23T20:37:18.283Z,27.3
2017-04-23T20:48:18.320Z,26.3
2017-04-23T20:59:18.833Z,26.8
2017-04-23T21:10:18.809Z,26.2
2017-04-23T21:21:18.211Z,25.3
2017-04-23T21:32:18.127Z,25.1
2017-04-23T21:43:21.710Z,24
2017-04-23T21:54:18.761Z,24.2
2017-04-23T22:05:19.546Z,23.4
2017-04-23T22:16:18.105Z,23.9
2017-04-23T22:27:18.577Z,23.6
2017-04-23T22:38:18.825Z,23.2
2017-04-23T22:49:18.122Z,26.2
2017-04-23T23:00:18.845Z,27.7
2017-04-23T23:11:18.479Z,28.1
2017-04-23T23:22:18.346Z,28.8
2017-04-23T23:33:18.830Z,29.8
2017-04-23T23:44:18.586Z,29.9
2017-04-23T23:55:18.875Z,30.2
